createdAt,value
2023-04-16T00:02:21.857Z,7.43
2023-04-16T00:05:24.811Z,8.00
2023-04-16T00:08:27.255Z,7.90
2023-04-16T00:11:30.061Z,7.90
2023-04-16T00:14:32.516Z,7.40
2023-04-16T00:17:35.193Z,7.10
2023-04-16T00:20:37.693Z,7.33
2023-04-16T00:23:40.580Z,6.67
2023-04-16T00:26:45.226Z,7.10
2023-04-16T00:29:48.218Z,7.57
2023-04-16T00:32:50.774Z,7.68
2023-04-16T00:35:53.488Z,8.30
2023-04-16T00:38:56.636Z,7.70
2023-04-16T00:41:59.313Z,7.45
2023-04-16T00:45:01.812Z,7.45
2023-04-16T00:48:05.828Z,7.65
2023-04-16T00:51:09.490Z,7.27
2023-04-16T00:54:12.434Z,7.93
2023-04-16T00:57:15.766Z,7.15
2023-04-16T01:00:20.509Z,7.28
2023-04-16T01:03:31.704Z,7.95
2023-04-16T01:06:34.523Z,7.70
2023-04-16T01:09:36.967Z,8.97
2023-04-16T01:12:39.582Z,9.43
2023-04-16T01:15:42.130Z,10.48
2023-04-16T01:18:44.985Z,12.75
2023-04-16T01:21:47.451Z,11.50
2023-04-16T01:24:50.734Z,10.77
2023-04-16T01:27:56.110Z,11.35
2023-04-16T01:30:58.926Z,10.82
2023-04-16T01:34:02.761Z,10.73
2023-04-16T01:37:05.486Z,10.03
2023-04-16T01:40:08.357Z,9.60
2023-04-16T01:43:11.231Z,8.73
2023-04-16T01:46:27.272Z,9.05
2023-04-16T01:49:30.161Z,9.23
2023-04-16T01:52:33.189Z,8.23
2023-04-16T01:55:36.431Z,7.37
2023-04-16T01:58:39.861Z,7.70
2023-04-16T02:01:43.429Z,7.70
2023-04-16T02:04:46.442Z,8.60
2023-04-16T02:07:48.954Z,7.80
2023-04-16T02:10:52.379Z,7.97
2023-04-16T02:13:55.125Z,7.62
2023-04-16T02:16:58.121Z,7.30
2023-04-16T02:20:03.418Z,7.12
2023-04-16T02:23:06.637Z,6.77
2023-04-16T02:26:09.117Z,7.40
2023-04-16T02:29:12.912Z,6.53
2023-04-16T02:32:18.485Z,6.80
2023-04-16T02:35:21.684Z,6.78
2023-04-16T02:38:24.808Z,7.03
2023-04-16T02:41:27.489Z,5.83
2023-04-16T02:44:29.927Z,6.90
2023-04-16T02:47:32.926Z,6.97
2023-04-16T02:50:35.783Z,7.10
2023-04-16T02:53:39.723Z,7.00
2023-04-16T02:56:42.154Z,6.60
2023-04-16T02:59:44.793Z,7.28
2023-04-16T03:02:47.391Z,6.50
2023-04-16T03:05:50.201Z,7.18
2023-04-16T03:08:52.661Z,6.83
2023-04-16T03:11:55.469Z,7.20
2023-04-16T03:14:58.024Z,6.80
2023-04-16T03:18:00.966Z,7.25
2023-04-16T03:21:03.811Z,7.12
2023-04-16T03:24:07.089Z,6.83
2023-04-16T03:27:09.450Z,7.40
2023-04-16T03:30:13.376Z,6.43
2023-04-16T03:33:15.815Z,7.65
2023-04-16T03:36:18.647Z,6.72
2023-04-16T03:39:21.487Z,7.47
2023-04-16T03:42:24.562Z,7.07
2023-04-16T03:45:27.000Z,7.87
2023-04-16T03:48:29.838Z,7.97
2023-04-16T03:51:33.277Z,8.60
2023-04-16T03:54:35.989Z,7.60
2023-04-16T03:57:39.868Z,7.53
2023-04-16T04:00:43.758Z,8.27
2023-04-16T04:03:47.124Z,7.97
2023-04-16T04:06:51.002Z,7.95
2023-04-16T04:09:53.932Z,7.33
2023-04-16T04:12:56.380Z,7.70
2023-04-16T04:15:59.113Z,7.32
2023-04-16T04:19:02.202Z,7.45
2023-04-16T04:22:04.852Z,7.18
2023-04-16T04:25:08.629Z,7.30
2023-04-16T04:28:12.038Z,6.87
2023-04-16T04:31:14.517Z,7.05
2023-04-16T04:34:19.329Z,7.55
2023-04-16T04:37:21.840Z,7.50
2023-04-16T04:40:24.610Z,6.87
2023-04-16T04:43:27.863Z,6.53
2023-04-16T04:46:30.499Z,6.68
2023-04-16T04:49:32.810Z,7.37
2023-04-16T04:52:35.984Z,6.78
2023-04-16T04:55:41.422Z,6.47
2023-04-16T04:58:44.766Z,5.90
2023-04-16T05:01:47.666Z,6.40
2023-04-16T05:04:50.575Z,6.18
2023-04-16T05:07:52.909Z,5.75
2023-04-16T05:10:55.565Z,5.80
2023-04-16T05:13:57.866Z,5.57
2023-04-16T05:17:01.160Z,5.43
2023-04-16T05:20:06.055Z,4.80
2023-04-16T05:23:08.829Z,5.07
2023-04-16T05:26:11.298Z,4.47
2023-04-16T05:29:14.175Z,3.63
2023-04-16T05:32:16.645Z,4.20
2023-04-16T05:35:19.399Z,4.10
2023-04-16T05:38:21.838Z,4.15
2023-04-16T05:41:24.640Z,3.77
2023-04-16T05:44:27.198Z,3.93
2023-04-16T05:47:30.050Z,3.70
2023-04-16T05:50:32.665Z,3.80
2023-04-16T05:53:35.670Z,3.37
2023-04-16T05:56:38.041Z,4.03
2023-04-16T05:59:40.769Z,3.70
2023-04-16T06:02:43.275Z,3.95
2023-04-16T06:05:46.120Z,3.70
2023-04-16T06:08:48.637Z,3.72
2023-04-16T06:11:51.361Z,3.90
2023-04-16T06:14:53.842Z,2.90
2023-04-16T06:17:57.534Z,3.28
2023-04-16T06:21:01.116Z,3.87
2023-04-16T06:24:04.244Z,3.85
2023-04-16T06:27:06.666Z,3.43
2023-04-16T06:30:13.593Z,3.37
2023-04-16T06:33:16.125Z,3.45
2023-04-16T06:36:18.873Z,3.45
2023-04-16T06:39:21.961Z,3.00
2023-04-16T06:42:24.745Z,3.60
2023-04-16T06:45:27.232Z,3.60
2023-04-16T06:48:30.126Z,3.35
2023-04-16T06:51:32.688Z,3.53
2023-04-16T06:54:35.459Z,3.58
2023-04-16T06:57:37.899Z,3.90
2023-04-16T07:00:40.687Z,3.30
2023-04-16T07:03:43.276Z,3.47
2023-04-16T07:06:46.232Z,3.58
2023-04-16T07:09:48.667Z,3.20
2023-04-16T07:12:51.906Z,3.10
2023-04-16T07:15:54.682Z,3.07
2023-04-16T07:18:57.317Z,3.10
2023-04-16T07:22:00.335Z,3.33
2023-04-16T07:25:03.234Z,3.35
2023-04-16T07:28:05.784Z,3.20
2023-04-16T07:31:08.564Z,3.07
2023-04-16T07:34:11.471Z,3.22
2023-04-16T07:37:14.326Z,3.28
2023-04-16T07:40:16.735Z,3.05
2023-04-16T07:43:19.471Z,3.50
2023-04-16T07:46:21.999Z,2.77
2023-04-16T07:49:24.711Z,2.95
2023-04-16T07:52:27.236Z,2.90
2023-04-16T07:55:30.105Z,2.60
2023-04-16T07:58:32.638Z,2.72
2023-04-16T08:01:35.641Z,2.93
2023-04-16T08:04:38.665Z,3.10
2023-04-16T08:07:41.168Z,3.00
2023-04-16T08:10:43.820Z,2.70
2023-04-16T08:13:46.137Z,2.72
2023-04-16T08:16:50.022Z,2.10
2023-04-16T08:19:52.460Z,1.95
2023-04-16T08:22:55.323Z,2.50
2023-04-16T08:25:57.803Z,1.98
2023-04-16T08:29:00.552Z,1.77
2023-04-16T08:32:03.459Z,2.43
2023-04-16T08:35:09.842Z,2.35
2023-04-16T08:38:12.157Z,1.80
2023-04-16T08:41:15.117Z,1.52
2023-04-16T08:44:25.677Z,1.60
2023-04-16T08:47:31.651Z,1.53
2023-04-16T08:50:36.561Z,1.52
2023-04-16T08:54:03.080Z,1.60
2023-04-16T08:57:06.888Z,1.40
2023-04-16T09:00:11.291Z,1.60
2023-04-16T09:03:14.044Z,1.30
2023-04-16T09:06:18.498Z,1.45
2023-04-16T09:09:22.474Z,1.62
2023-04-16T09:12:25.966Z,1.65
2023-04-16T09:15:29.504Z,1.55
2023-04-16T09:18:32.165Z,1.60
2023-04-16T09:21:34.851Z,1.20
2023-04-16T09:24:38.663Z,1.27
2023-04-16T09:27:41.238Z,1.48
2023-04-16T09:30:43.997Z,1.02
2023-04-16T09:34:07.164Z,0.83
2023-04-16T09:37:19.511Z,1.05
2023-04-16T09:40:26.286Z,1.12
2023-04-16T09:43:29.064Z,0.95
2023-04-16T09:46:35.743Z,1.10
2023-04-16T09:49:43.046Z,0.83
2023-04-16T09:52:49.713Z,1.00
2023-04-16T09:56:02.915Z,1.35
2023-04-16T09:59:05.462Z,0.80
2023-04-16T10:02:15.758Z,1.00
2023-04-16T10:05:20.394Z,0.90
2023-04-16T10:08:24.105Z,0.90
2023-04-16T10:11:27.180Z,1.10
2023-04-16T10:14:29.622Z,1.00
2023-04-16T10:17:33.421Z,1.00
2023-04-16T10:20:37.210Z,1.00
2023-04-16T10:23:40.718Z,1.05
2023-04-16T10:26:44.751Z,1.08
2023-04-16T10:29:49.052Z,0.98
2023-04-16T10:32:52.561Z,0.75
2023-04-16T10:36:13.017Z,0.90
2023-04-16T10:39:18.986Z,1.00
2023-04-16T10:42:22.081Z,0.70
2023-04-16T10:45:42.702Z,0.90
2023-04-16T10:48:50.099Z,0.80
2023-04-16T10:52:02.345Z,0.77
2023-04-16T10:55:06.405Z,0.95
2023-04-16T10:58:41.921Z,0.77
2023-04-16T11:01:46.822Z,0.70
2023-04-16T11:04:50.163Z,1.00
2023-04-16T11:07:53.007Z,0.70
2023-04-16T11:10:58.736Z,0.90
2023-04-16T11:14:02.330Z,0.88
2023-04-16T11:17:04.641Z,0.80
2023-04-16T11:20:20.053Z,0.88
2023-04-16T11:23:23.238Z,1.00
2023-04-16T11:26:28.213Z,0.90
2023-04-16T11:29:30.708Z,0.90
2023-04-16T11:32:35.316Z,0.90
2023-04-16T11:35:41.508Z,0.93
2023-04-16T11:38:44.919Z,0.73
2023-04-16T11:41:48.806Z,1.20
2023-04-16T11:44:55.956Z,0.95
2023-04-16T11:47:58.657Z,0.70
2023-04-16T11:51:01.469Z,1.10
2023-04-16T11:54:03.965Z,1.10
2023-04-16T11:57:06.584Z,0.80
2023-04-16T12:00:15.404Z,1.17
2023-04-16T12:03:18.515Z,0.93
2023-04-16T12:06:22.640Z,0.85
2023-04-16T12:09:29.903Z,0.90
2023-04-16T12:12:32.815Z,0.88
2023-04-16T12:15:52.179Z,0.70
2023-04-16T12:19:04.072Z,0.88
2023-04-16T12:22:07.116Z,1.00
2023-04-16T12:25:15.207Z,0.70
2023-04-16T12:28:35.309Z,0.77
2023-04-16T12:31:38.409Z,0.90
2023-04-16T12:34:51.268Z,0.75
2023-04-16T12:37:53.804Z,0.82
2023-04-16T12:40:57.852Z,1.10
2023-04-16T12:44:09.234Z,0.80
2023-04-16T12:47:11.935Z,1.00
2023-04-16T12:50:14.355Z,0.80
2023-04-16T12:53:17.093Z,0.75
2023-04-16T12:56:19.528Z,0.80
2023-04-16T12:59:22.221Z,0.90
2023-04-16T13:02:25.893Z,0.90
2023-04-16T13:05:28.828Z,0.73
2023-04-16T13:08:31.598Z,1.00
2023-04-16T13:11:34.268Z,1.00
2023-04-16T13:14:37.073Z,0.80
2023-04-16T13:17:39.728Z,0.90
2023-04-16T13:20:42.154Z,0.82
2023-04-16T13:23:44.952Z,0.85
2023-04-16T13:26:47.435Z,0.97
2023-04-16T13:29:50.327Z,0.98
2023-04-16T13:32:53.004Z,0.93
2023-04-16T13:35:55.903Z,1.15
2023-04-16T13:38:58.983Z,1.10
2023-04-16T13:42:01.937Z,1.00
2023-04-16T13:45:04.502Z,1.10
2023-04-16T13:48:07.313Z,1.00
2023-04-16T13:51:09.800Z,1.05
2023-04-16T13:54:12.693Z,1.00
2023-04-16T13:57:15.267Z,1.13
2023-04-16T14:00:18.468Z,0.90
2023-04-16T14:03:21.798Z,1.20
2023-04-16T14:06:24.222Z,1.12
2023-04-16T14:09:27.319Z,1.12
2023-04-16T14:12:31.636Z,0.93
2023-04-16T14:15:34.427Z,0.90
2023-04-16T14:18:41.109Z,0.80
2023-04-16T14:21:44.048Z,0.88
2023-04-16T14:24:46.627Z,1.10
2023-04-16T14:27:49.648Z,1.10
2023-04-16T14:30:52.199Z,1.05
2023-04-16T14:33:54.992Z,0.90
2023-04-16T14:36:57.309Z,1.20
2023-04-16T14:40:00.891Z,1.00
2023-04-16T14:43:03.374Z,1.53
2023-04-16T14:46:06.654Z,1.30
2023-04-16T14:49:12.266Z,1.40
2023-04-16T14:52:15.325Z,1.00
2023-04-16T14:55:18.000Z,1.10
2023-04-16T14:58:21.917Z,1.17
2023-04-16T15:01:24.633Z,1.00
2023-04-16T15:04:27.727Z,1.25
2023-04-16T15:07:30.255Z,0.88
2023-04-16T15:10:33.144Z,0.95
2023-04-16T15:13:35.801Z,1.47
2023-04-16T15:16:38.754Z,1.17
2023-04-16T15:19:41.435Z,0.90
2023-04-16T15:22:44.137Z,1.40
2023-04-16T15:25:46.690Z,1.50
2023-04-16T15:28:49.313Z,1.10
2023-04-16T15:31:51.679Z,1.27
2023-04-16T15:34:54.480Z,1.00
2023-04-16T15:37:57.004Z,0.90
2023-04-16T15:41:00.762Z,1.40
2023-04-16T15:44:03.650Z,1.30
2023-04-16T15:47:07.947Z,1.58
2023-04-16T15:50:10.464Z,1.58
2023-04-16T15:53:13.190Z,1.23
2023-04-16T15:56:15.640Z,1.27
2023-04-16T15:59:18.547Z,1.00
2023-04-16T16:02:21.349Z,1.08
2023-04-16T16:05:24.431Z,0.98
2023-04-16T16:08:27.379Z,1.10
2023-04-16T16:11:30.142Z,1.00
2023-04-16T16:14:33.364Z,1.43
2023-04-16T16:17:36.120Z,1.02
2023-04-16T16:20:40.534Z,1.02
2023-04-16T16:23:43.204Z,1.37
2023-04-16T16:26:45.789Z,1.00
2023-04-16T16:29:48.670Z,1.03
2023-04-16T16:32:51.302Z,1.00
2023-04-16T16:35:54.155Z,1.10
2023-04-16T16:38:57.053Z,1.20
2023-04-16T16:42:00.130Z,0.88
2023-04-16T16:45:06.223Z,1.00
2023-04-16T16:48:09.164Z,1.10
2023-04-16T16:51:11.770Z,0.82
2023-04-16T16:54:15.093Z,0.88
2023-04-16T16:57:19.542Z,0.68
2023-04-16T17:00:22.777Z,0.73
2023-04-16T17:03:25.245Z,0.90
2023-04-16T17:06:28.448Z,1.10
2023-04-16T17:09:30.844Z,1.40
2023-04-16T17:12:33.544Z,1.23
2023-04-16T17:15:35.907Z,1.13
2023-04-16T17:18:38.725Z,0.90
2023-04-16T17:21:41.699Z,0.90
2023-04-16T17:24:44.521Z,0.80
2023-04-16T17:27:47.091Z,1.30
2023-04-16T17:30:54.166Z,1.50
2023-04-16T17:33:56.765Z,1.62
2023-04-16T17:36:59.423Z,1.92
2023-04-16T17:40:01.802Z,2.10
2023-04-16T17:43:04.656Z,2.08
2023-04-16T17:46:10.865Z,2.30
2023-04-16T17:49:17.005Z,2.67
2023-04-16T17:52:21.322Z,2.65
2023-04-16T17:55:24.227Z,2.95
2023-04-16T17:58:33.054Z,3.72
2023-04-16T18:01:36.095Z,2.80
2023-04-16T18:04:39.023Z,2.60
2023-04-16T18:07:41.455Z,2.80
2023-04-16T18:10:44.056Z,2.92
2023-04-16T18:13:46.944Z,3.08
2023-04-16T18:16:49.931Z,2.50
2023-04-16T18:19:52.355Z,2.45
2023-04-16T18:22:55.125Z,2.47
2023-04-16T18:25:57.568Z,2.72
2023-04-16T18:29:00.453Z,2.43
2023-04-16T18:32:04.532Z,2.97
2023-04-16T18:35:08.030Z,2.50
2023-04-16T18:38:10.517Z,2.28
2023-04-16T18:41:17.752Z,1.80
2023-04-16T18:44:20.847Z,1.67
2023-04-16T18:47:23.916Z,1.50
2023-04-16T18:50:26.554Z,1.50
2023-04-16T18:53:29.293Z,1.30
2023-04-16T18:56:31.719Z,1.20
2023-04-16T18:59:36.490Z,1.50
2023-04-16T19:02:42.308Z,1.10
2023-04-16T19:05:45.219Z,1.12
2023-04-16T19:08:47.766Z,1.00
2023-04-16T19:11:50.712Z,0.88
2023-04-16T19:14:53.281Z,0.90
2023-04-16T19:17:56.102Z,0.90
2023-04-16T19:21:01.643Z,1.33
2023-04-16T19:24:04.577Z,0.80
2023-04-16T19:27:06.996Z,3.80
2023-04-16T19:30:10.122Z,1.40
2023-04-16T19:33:13.258Z,1.00
2023-04-16T19:36:16.085Z,1.05
2023-04-16T19:39:18.549Z,1.02
2023-04-16T19:42:21.698Z,1.33
2023-04-16T19:45:26.109Z,1.80
2023-04-16T19:48:29.001Z,1.83
2023-04-16T19:51:31.361Z,1.73
2023-04-16T19:54:34.886Z,1.80
2023-04-16T19:57:37.360Z,1.80
2023-04-16T20:00:43.454Z,1.50
2023-04-16T20:03:46.882Z,1.70
2023-04-16T20:06:49.578Z,1.65
2023-04-16T20:09:53.190Z,1.55
2023-04-16T20:12:55.725Z,1.67
2023-04-16T20:15:58.578Z,1.97
2023-04-16T20:19:03.640Z,1.70
2023-04-16T20:22:07.836Z,1.70
2023-04-16T20:25:10.360Z,1.62
2023-04-16T20:28:16.343Z,1.55
2023-04-16T20:31:18.950Z,1.60
2023-04-16T20:34:21.697Z,1.57
2023-04-16T20:37:24.218Z,1.60
2023-04-16T20:40:30.505Z,1.48
2023-04-16T20:43:38.686Z,1.58
2023-04-16T20:46:42.087Z,1.50
2023-04-16T20:49:47.092Z,1.50
2023-04-16T20:52:49.725Z,1.70
2023-04-16T20:55:52.112Z,1.40
2023-04-16T20:58:55.954Z,1.75
2023-04-16T21:02:01.299Z,1.60
2023-04-16T21:05:05.460Z,1.50
2023-04-16T21:08:07.957Z,1.80
2023-04-16T21:11:10.883Z,1.50
2023-04-16T21:14:13.762Z,1.83
2023-04-16T21:17:16.430Z,1.47
2023-04-16T21:20:19.352Z,1.60
2023-04-16T21:23:22.012Z,1.50
2023-04-16T21:26:24.610Z,1.45
2023-04-16T21:29:27.997Z,1.65
2023-04-16T21:32:30.874Z,1.40
2023-04-16T21:35:33.670Z,1.57
2023-04-16T21:38:36.380Z,1.55
2023-04-16T21:41:39.136Z,1.60
2023-04-16T21:44:41.498Z,1.90
2023-04-16T21:47:44.189Z,1.70
2023-04-16T21:50:46.791Z,2.00
2023-04-16T21:53:49.478Z,1.85
2023-04-16T21:56:52.076Z,1.80
2023-04-16T21:59:54.957Z,1.52
2023-04-16T22:03:00.350Z,1.80
2023-04-16T22:06:04.237Z,1.83
2023-04-16T22:09:06.831Z,2.00
2023-04-16T22:12:12.909Z,1.98
2023-04-16T22:15:15.284Z,1.77
2023-04-16T22:18:18.250Z,1.97
2023-04-16T22:21:20.960Z,1.80
2023-04-16T22:24:24.272Z,1.90
2023-04-16T22:27:26.725Z,1.90
2023-04-16T22:30:29.596Z,1.80
2023-04-16T22:33:31.969Z,1.83
2023-04-16T22:36:34.608Z,2.10
2023-04-16T22:39:36.971Z,2.10
2023-04-16T22:42:39.614Z,2.22
2023-04-16T22:45:43.235Z,2.03
2023-04-16T22:48:46.046Z,2.17
2023-04-16T22:51:48.542Z,2.30
2023-04-16T22:54:51.517Z,2.12
2023-04-16T22:57:55.282Z,2.00
2023-04-16T23:00:59.565Z,2.08
2023-04-16T23:04:02.214Z,2.10
2023-04-16T23:07:07.938Z,2.17
2023-04-16T23:10:10.903Z,1.80
2023-04-16T23:13:13.946Z,2.00
2023-04-16T23:16:16.660Z,1.87
2023-04-16T23:19:19.502Z,2.10
2023-04-16T23:22:22.087Z,2.07
2023-04-16T23:25:25.586Z,1.98
2023-04-16T23:28:28.017Z,2.10
2023-04-16T23:31:30.861Z,2.30
2023-04-16T23:34:33.245Z,2.20
2023-04-16T23:37:36.041Z,2.00
2023-04-16T23:40:38.569Z,2.10
2023-04-16T23:43:41.723Z,2.65
2023-04-16T23:46:44.259Z,2.20
2023-04-16T23:49:46.982Z,2.70
2023-04-16T23:52:49.322Z,2.33
2023-04-16T23:55:52.030Z,2.33
2023-04-16T23:58:54.388Z,2.53
